createdAt,value
2022-12-03T00:00:19.704Z,12.13
2022-12-03T00:02:47.445Z,11.32
2022-12-03T00:05:16.528Z,11.18
2022-12-03T00:07:44.279Z,10.60
2022-12-03T00:10:12.579Z,11.82
2022-12-03T00:12:41.050Z,11.23
2022-12-03T00:15:09.906Z,11.70
2022-12-03T00:17:37.582Z,12.18
2022-12-03T00:20:05.727Z,12.10
2022-12-03T00:22:34.708Z,11.20
2022-12-03T00:25:02.300Z,9.77
2022-12-03T00:27:29.907Z,9.82
2022-12-03T00:29:57.505Z,12.05
2022-12-03T00:32:25.156Z,10.55
2022-12-03T00:34:52.941Z,10.65
2022-12-03T00:37:20.845Z,11.25
2022-12-03T00:39:50.416Z,10.45
2022-12-03T00:42:18.063Z,9.68
2022-12-03T00:44:45.699Z,10.65
2022-12-03T00:47:13.625Z,12.25
2022-12-03T00:49:41.357Z,10.40
2022-12-03T00:52:09.092Z,10.45
2022-12-03T00:54:36.732Z,12.43
2022-12-03T00:57:05.759Z,12.73
2022-12-03T00:59:33.352Z,14.95
2022-12-03T01:02:01.081Z,13.55
2022-12-03T01:04:28.760Z,14.10
2022-12-03T01:06:56.490Z,13.68
2022-12-03T01:09:24.102Z,13.93
2022-12-03T01:11:51.835Z,16.85
2022-12-03T01:14:21.276Z,14.20
2022-12-03T01:16:49.282Z,14.13
2022-12-03T01:19:17.310Z,15.32
2022-12-03T01:21:45.606Z,14.18
2022-12-03T01:24:13.331Z,14.95
2022-12-03T01:26:41.090Z,12.15
2022-12-03T01:29:08.722Z,13.35
2022-12-03T01:31:55.241Z,12.23
2022-12-03T01:34:22.873Z,12.10
2022-12-03T01:36:52.415Z,12.18
2022-12-03T01:39:20.367Z,9.10
2022-12-03T01:41:48.244Z,9.77
2022-12-03T01:44:17.165Z,10.80
2022-12-03T01:46:46.757Z,8.73
2022-12-03T01:49:16.292Z,11.73
2022-12-03T01:51:43.963Z,10.40
2022-12-03T01:54:15.682Z,10.48
2022-12-03T01:56:43.451Z,11.40
2022-12-03T01:59:14.660Z,11.65
2022-12-03T02:01:42.345Z,11.43
2022-12-03T02:04:13.349Z,10.35
2022-12-03T02:06:41.450Z,11.68
2022-12-03T02:09:10.986Z,11.13
2022-12-03T02:11:39.776Z,9.82
2022-12-03T02:14:08.599Z,7.97
2022-12-03T02:16:36.616Z,9.30
2022-12-03T02:19:05.691Z,10.75
2022-12-03T02:21:37.539Z,10.05
2022-12-03T02:24:07.519Z,8.80
2022-12-03T02:26:36.589Z,9.98
2022-12-03T02:29:04.257Z,10.13
2022-12-03T02:31:32.435Z,9.65
2022-12-03T02:34:00.131Z,10.57
2022-12-03T02:36:28.036Z,9.27
2022-12-03T02:38:55.665Z,10.27
2022-12-03T02:41:37.331Z,10.90
2022-12-03T02:44:07.233Z,9.15
2022-12-03T02:46:35.257Z,9.70
2022-12-03T02:49:03.099Z,10.98
2022-12-03T02:51:30.924Z,9.15
2022-12-03T02:53:59.296Z,9.25
2022-12-03T02:56:28.098Z,10.02
2022-12-03T02:58:57.811Z,9.45
2022-12-03T03:01:26.980Z,9.88
2022-12-03T03:03:55.088Z,10.60
2022-12-03T03:06:22.851Z,10.57
2022-12-03T03:08:50.661Z,10.57
2022-12-03T03:11:18.520Z,9.60
2022-12-03T03:13:46.274Z,10.35
2022-12-03T03:16:14.087Z,10.20
2022-12-03T03:18:43.308Z,9.25
2022-12-03T03:21:11.003Z,9.32
2022-12-03T03:23:39.005Z,11.07
2022-12-03T03:26:09.694Z,9.75
2022-12-03T03:28:39.006Z,11.88
2022-12-03T03:31:08.349Z,8.23
2022-12-03T03:33:36.224Z,9.00
2022-12-03T03:36:05.510Z,10.55
2022-12-03T03:38:33.427Z,9.48
2022-12-03T03:41:02.200Z,8.75
2022-12-03T03:43:30.748Z,8.35
2022-12-03T03:45:58.431Z,9.55
2022-12-03T03:48:26.136Z,10.20
2022-12-03T03:50:54.009Z,10.65
2022-12-03T03:53:23.588Z,11.02
2022-12-03T03:55:51.392Z,10.10
2022-12-03T03:58:19.067Z,8.75
2022-12-03T04:00:47.187Z,8.57
2022-12-03T04:03:14.998Z,10.13
2022-12-03T04:05:42.797Z,9.60
2022-12-03T04:08:10.588Z,9.90
2022-12-03T04:10:57.213Z,9.95
2022-12-03T04:13:24.825Z,9.38
2022-12-03T04:15:52.644Z,9.50
2022-12-03T04:18:37.784Z,9.48
2022-12-03T04:21:22.747Z,9.60
2022-12-03T04:23:50.419Z,9.70
2022-12-03T04:26:36.665Z,9.45
2022-12-03T04:29:04.422Z,10.45
2022-12-03T04:31:49.298Z,11.52
2022-12-03T04:34:45.674Z,10.35
2022-12-03T04:39:40.775Z,9.40
2022-12-03T04:42:09.816Z,10.18
2022-12-03T04:44:37.407Z,10.20
2022-12-03T04:47:06.856Z,10.65
2022-12-03T04:49:34.829Z,9.60
2022-12-03T04:52:02.591Z,10.95
2022-12-03T04:54:30.654Z,10.15
2022-12-03T04:56:58.301Z,9.70
2022-12-03T04:59:27.295Z,10.32
2022-12-03T05:01:54.984Z,8.90
2022-12-03T05:04:22.645Z,9.30
2022-12-03T05:06:50.283Z,8.65
2022-12-03T05:09:18.269Z,9.38
2022-12-03T05:11:46.152Z,8.38
2022-12-03T05:14:13.878Z,8.25
2022-12-03T05:16:43.000Z,9.43
2022-12-03T05:19:10.664Z,10.00
2022-12-03T05:21:37.265Z,10.02
2022-12-03T05:24:05.270Z,11.75
2022-12-03T05:26:32.868Z,8.55
2022-12-03T05:29:15.719Z,9.10
2022-12-03T05:31:44.914Z,8.70
2022-12-03T05:34:12.650Z,9.48
2022-12-03T05:36:40.251Z,9.05
2022-12-03T05:39:07.857Z,9.07
2022-12-03T05:41:52.691Z,7.80
2022-12-03T05:44:20.800Z,9.80
2022-12-03T05:46:50.025Z,9.00
2022-12-03T05:49:17.679Z,8.55
2022-12-03T05:51:45.321Z,8.73
2022-12-03T05:54:12.963Z,9.52
2022-12-03T05:56:40.556Z,8.20
2022-12-03T05:59:08.163Z,9.27
2022-12-03T06:01:35.809Z,9.27
2022-12-03T06:04:04.881Z,10.20
2022-12-03T06:06:32.542Z,9.30
2022-12-03T06:09:00.175Z,9.20
2022-12-03T06:11:29.888Z,9.48
2022-12-03T06:13:57.494Z,10.05
2022-12-03T06:16:25.157Z,8.73
2022-12-03T06:18:52.894Z,8.50
2022-12-03T06:21:21.923Z,8.98
2022-12-03T06:23:49.539Z,8.88
2022-12-03T06:26:17.149Z,9.85
2022-12-03T06:28:46.468Z,8.98
2022-12-03T06:31:14.221Z,9.20
2022-12-03T06:33:41.936Z,9.13
2022-12-03T06:36:09.808Z,9.68
2022-12-03T06:38:38.822Z,9.77
2022-12-03T06:41:06.593Z,10.50
2022-12-03T06:43:34.282Z,9.30
2022-12-03T06:46:01.908Z,9.23
2022-12-03T06:48:29.578Z,10.35
2022-12-03T06:50:57.281Z,9.50
2022-12-03T06:53:25.096Z,9.10
2022-12-03T06:55:54.201Z,11.88
2022-12-03T06:58:21.870Z,10.57
2022-12-03T07:00:49.696Z,10.38
2022-12-03T07:03:17.426Z,9.45
2022-12-03T07:05:45.091Z,11.15
2022-12-03T07:08:12.892Z,10.85
2022-12-03T07:10:40.670Z,10.50
2022-12-03T07:13:09.637Z,11.98
2022-12-03T07:15:37.313Z,8.90
2022-12-03T07:18:05.006Z,10.32
2022-12-03T07:20:32.643Z,11.38
2022-12-03T07:23:00.309Z,11.27
2022-12-03T07:25:28.441Z,10.43
2022-12-03T07:27:56.050Z,9.93
2022-12-03T07:30:25.687Z,10.77
2022-12-03T07:32:53.413Z,11.15
2022-12-03T07:35:21.654Z,10.02
2022-12-03T07:37:49.309Z,10.95
2022-12-03T07:40:17.254Z,10.88
2022-12-03T07:42:45.177Z,10.70
2022-12-03T07:45:12.836Z,11.02
2022-12-03T07:47:42.287Z,10.73
2022-12-03T07:50:10.452Z,12.68
2022-12-03T07:52:38.544Z,10.73
2022-12-03T07:55:06.673Z,12.48
2022-12-03T07:57:34.365Z,11.43
2022-12-03T08:00:02.039Z,12.68
2022-12-03T08:02:29.674Z,11.52
2022-12-03T08:04:58.704Z,10.57
2022-12-03T08:07:26.336Z,10.38
2022-12-03T08:09:54.167Z,12.25
2022-12-03T08:12:24.010Z,10.82
2022-12-03T08:14:51.770Z,11.13
2022-12-03T08:17:21.732Z,9.68
2022-12-03T08:19:49.365Z,10.40
2022-12-03T08:22:18.614Z,10.52
2022-12-03T08:24:46.226Z,9.63
2022-12-03T08:27:17.433Z,9.75
2022-12-03T08:29:45.275Z,10.90
2022-12-03T08:32:13.832Z,11.38
2022-12-03T08:34:42.469Z,11.85
2022-12-03T08:37:13.676Z,10.07
2022-12-03T08:39:45.224Z,10.20
2022-12-03T08:42:31.597Z,10.55
2022-12-03T08:45:00.876Z,11.82
2022-12-03T08:47:32.235Z,10.27
2022-12-03T08:50:04.343Z,10.95
2022-12-03T08:52:33.316Z,10.02
2022-12-03T08:55:10.977Z,9.98
2022-12-03T08:57:39.329Z,10.80
2022-12-03T09:00:15.521Z,11.02
2022-12-03T09:02:46.314Z,11.10
2022-12-03T09:05:16.430Z,12.63
2022-12-03T09:07:44.127Z,11.05
2022-12-03T09:10:13.367Z,10.68
2022-12-03T09:12:41.021Z,11.40
2022-12-03T09:15:09.035Z,12.38
2022-12-03T09:17:37.877Z,12.45
2022-12-03T09:20:05.966Z,11.82
2022-12-03T09:22:33.594Z,13.50
2022-12-03T09:25:01.314Z,12.48
2022-12-03T09:27:30.360Z,11.68
2022-12-03T09:29:58.138Z,11.90
2022-12-03T09:32:26.037Z,11.60
2022-12-03T09:34:54.297Z,12.43
2022-12-03T09:37:23.331Z,11.90
2022-12-03T09:39:50.984Z,12.13
2022-12-03T09:42:18.706Z,12.43
2022-12-03T09:44:47.653Z,11.00
2022-12-03T09:47:15.411Z,10.15
2022-12-03T09:49:43.479Z,11.25
2022-12-03T09:52:13.156Z,11.73
2022-12-03T09:54:46.886Z,12.65
2022-12-03T09:57:15.149Z,11.95
2022-12-03T09:59:42.812Z,11.48
2022-12-03T10:02:19.209Z,10.82
2022-12-03T10:04:46.915Z,12.88
2022-12-03T10:07:14.843Z,11.88
2022-12-03T10:09:42.776Z,11.30
2022-12-03T10:12:12.162Z,11.20
2022-12-03T10:14:40.105Z,10.65
2022-12-03T10:17:07.917Z,11.75
2022-12-03T10:19:37.654Z,13.45
2022-12-03T10:22:05.303Z,12.18
2022-12-03T10:24:33.450Z,10.20
2022-12-03T10:27:01.940Z,11.00
2022-12-03T10:29:34.036Z,13.02
2022-12-03T10:32:02.876Z,12.40
2022-12-03T10:34:31.855Z,13.07
2022-12-03T10:37:11.917Z,12.50
2022-12-03T10:39:56.566Z,11.38
2022-12-03T10:42:24.981Z,11.90
2022-12-03T10:45:07.487Z,13.07
2022-12-03T10:47:36.477Z,12.82
2022-12-03T10:50:05.674Z,12.63
2022-12-03T10:52:34.838Z,12.93
2022-12-03T10:55:02.654Z,11.75
2022-12-03T10:57:30.403Z,12.73
2022-12-03T10:59:58.000Z,11.27
2022-12-03T11:02:26.007Z,11.48
2022-12-03T11:04:54.015Z,12.38
2022-12-03T11:07:24.648Z,13.77
2022-12-03T11:09:55.724Z,12.40
2022-12-03T11:12:24.214Z,12.90
2022-12-03T11:15:06.508Z,14.15
2022-12-03T11:17:41.910Z,12.80
2022-12-03T11:20:11.132Z,13.60
2022-12-03T11:22:43.159Z,10.82
2022-12-03T11:25:32.138Z,13.20
2022-12-03T11:28:17.571Z,11.85
2022-12-03T11:30:59.177Z,10.38
2022-12-03T11:33:28.025Z,10.30
2022-12-03T11:36:13.457Z,9.65
2022-12-03T11:38:50.716Z,10.85
2022-12-03T11:41:21.505Z,11.43
2022-12-03T11:43:59.824Z,11.55
2022-12-03T11:46:30.690Z,10.88
2022-12-03T11:48:59.745Z,10.73
2022-12-03T11:51:28.837Z,12.48
2022-12-03T11:53:57.445Z,10.75
2022-12-03T11:56:26.201Z,11.85
2022-12-03T11:58:58.876Z,11.25
2022-12-03T12:01:38.489Z,10.75
2022-12-03T12:04:07.389Z,10.30
2022-12-03T12:06:42.478Z,12.45
2022-12-03T12:09:10.587Z,11.95
2022-12-03T12:11:40.480Z,13.25
2022-12-03T12:14:08.467Z,10.27
2022-12-03T12:16:38.288Z,10.90
2022-12-03T12:19:24.409Z,12.27
2022-12-03T12:21:52.814Z,12.40
2022-12-03T12:24:36.002Z,12.15
2022-12-03T12:27:05.643Z,12.93
2022-12-03T12:29:33.457Z,11.65
2022-12-03T12:32:07.464Z,11.93
2022-12-03T12:34:35.358Z,12.90
2022-12-03T12:37:03.573Z,12.13
2022-12-03T12:39:32.029Z,10.25
2022-12-03T12:41:59.789Z,12.27
2022-12-03T12:44:28.576Z,14.23
2022-12-03T12:46:56.528Z,12.57
2022-12-03T12:49:26.956Z,11.85
2022-12-03T12:51:55.173Z,13.25
2022-12-03T12:54:22.800Z,12.35
2022-12-03T12:56:51.013Z,14.45
2022-12-03T12:59:19.995Z,11.63
2022-12-03T13:01:48.520Z,12.00
2022-12-03T13:04:17.477Z,11.65
2022-12-03T13:06:47.211Z,11.25
2022-12-03T13:09:18.057Z,12.00
2022-12-03T13:11:46.689Z,11.73
2022-12-03T13:14:18.677Z,12.10
2022-12-03T13:16:47.171Z,11.35
2022-12-03T13:19:21.741Z,12.55
2022-12-03T13:21:50.996Z,12.07
2022-12-03T13:24:36.607Z,12.38
2022-12-03T13:27:09.831Z,11.70
2022-12-03T13:29:37.456Z,11.60
2022-12-03T13:32:12.142Z,13.50
2022-12-03T13:34:39.838Z,13.27
2022-12-03T13:37:13.263Z,12.77
2022-12-03T13:39:43.685Z,10.20
2022-12-03T13:42:36.117Z,11.20
2022-12-03T13:45:04.443Z,11.90
2022-12-03T13:47:33.454Z,11.32
2022-12-03T13:50:03.651Z,12.02
2022-12-03T13:52:33.972Z,11.18
2022-12-03T13:55:03.671Z,13.07
2022-12-03T13:57:31.330Z,12.10
2022-12-03T13:59:58.927Z,13.10
2022-12-03T14:02:26.609Z,10.10
2022-12-03T14:04:59.764Z,11.05
2022-12-03T14:07:28.086Z,13.77
2022-12-03T14:09:57.426Z,13.00
2022-12-03T14:12:33.701Z,11.60
2022-12-03T14:15:01.872Z,11.35
2022-12-03T14:17:30.307Z,13.93
2022-12-03T14:19:58.040Z,13.07
2022-12-03T14:22:25.641Z,11.70
2022-12-03T14:24:53.618Z,12.15
2022-12-03T14:27:23.342Z,11.48
2022-12-03T14:29:51.540Z,12.57
2022-12-03T14:32:19.530Z,12.07
2022-12-03T14:34:47.187Z,10.45
2022-12-03T14:37:15.039Z,11.02
2022-12-03T14:39:43.137Z,12.82
2022-12-03T14:42:16.942Z,11.57
2022-12-03T14:44:46.962Z,11.65
2022-12-03T14:47:15.078Z,12.40
2022-12-03T14:49:42.670Z,16.13
2022-12-03T14:52:12.479Z,12.70
2022-12-03T14:54:42.304Z,11.50
2022-12-03T14:57:11.412Z,12.63
2022-12-03T14:59:39.233Z,10.75
2022-12-03T15:02:08.369Z,12.07
2022-12-03T15:04:36.017Z,13.98
2022-12-03T15:07:03.736Z,10.68
2022-12-03T15:09:31.339Z,10.10
2022-12-03T15:12:00.116Z,11.63
2022-12-03T15:14:27.822Z,12.23
2022-12-03T15:16:55.649Z,13.25
2022-12-03T15:19:24.815Z,12.65
2022-12-03T15:21:52.414Z,11.40
2022-12-03T15:24:20.621Z,11.18
2022-12-03T15:26:49.248Z,11.80
2022-12-03T15:29:16.914Z,11.57
2022-12-03T15:31:44.766Z,13.10
2022-12-03T15:34:15.020Z,12.43
2022-12-03T15:36:47.949Z,12.07
2022-12-03T15:39:15.561Z,11.43
2022-12-03T15:41:43.173Z,11.68
2022-12-03T15:44:10.801Z,11.88
2022-12-03T15:46:38.545Z,13.50
2022-12-03T15:49:06.294Z,11.35
2022-12-03T15:51:33.899Z,11.38
2022-12-03T15:54:02.866Z,12.30
2022-12-03T15:56:30.492Z,11.77
2022-12-03T15:58:58.214Z,12.88
2022-12-03T16:01:26.014Z,13.07
2022-12-03T16:03:53.662Z,9.82
2022-12-03T16:06:21.269Z,10.55
2022-12-03T16:08:48.988Z,10.30
2022-12-03T16:11:17.998Z,9.45
2022-12-03T16:13:45.829Z,11.23
2022-12-03T16:16:13.544Z,11.07
2022-12-03T16:18:41.438Z,12.07
2022-12-03T16:21:09.156Z,9.98
2022-12-03T16:23:36.795Z,10.95
2022-12-03T16:26:04.590Z,13.48
2022-12-03T16:28:33.550Z,12.38
2022-12-03T16:31:01.242Z,12.48
2022-12-03T16:33:28.995Z,12.32
2022-12-03T16:35:56.699Z,12.57
2022-12-03T16:38:24.533Z,11.25
2022-12-03T16:40:52.134Z,10.80
2022-12-03T16:43:19.738Z,11.23
2022-12-03T16:46:20.518Z,11.13
2022-12-03T16:48:48.741Z,12.80
2022-12-03T16:51:16.460Z,11.63
2022-12-03T16:53:44.275Z,11.23
2022-12-03T16:56:13.109Z,11.20
2022-12-03T16:58:40.787Z,12.57
2022-12-03T17:01:10.276Z,12.38
2022-12-03T17:03:38.050Z,11.25
2022-12-03T17:06:06.105Z,11.10
2022-12-03T17:08:33.813Z,11.45
2022-12-03T17:11:01.503Z,13.40
2022-12-03T17:13:29.300Z,12.13
2022-12-03T17:15:56.993Z,12.48
2022-12-03T17:18:26.425Z,12.75
2022-12-03T17:20:54.035Z,12.90
2022-12-03T17:23:21.662Z,14.68
2022-12-03T17:25:49.256Z,11.88
2022-12-03T17:28:21.545Z,13.15
2022-12-03T17:30:49.440Z,12.25
2022-12-03T17:33:17.403Z,11.98
2022-12-03T17:35:46.663Z,14.10
2022-12-03T17:38:14.353Z,13.43
2022-12-03T17:40:44.308Z,13.02
2022-12-03T17:43:11.917Z,14.45
2022-12-03T17:45:39.789Z,13.57
2022-12-03T17:48:08.143Z,12.63
2022-12-03T17:50:35.742Z,11.70
2022-12-03T17:53:07.919Z,12.45
2022-12-03T17:55:41.186Z,13.57
2022-12-03T17:58:12.114Z,11.93
2022-12-03T18:00:39.797Z,11.15
2022-12-03T18:03:07.506Z,11.68
2022-12-03T18:05:35.208Z,13.50
2022-12-03T18:08:04.335Z,12.45
2022-12-03T18:10:32.041Z,11.80
2022-12-03T18:13:01.955Z,13.02
2022-12-03T18:15:30.337Z,11.27
2022-12-03T18:17:58.086Z,11.60
2022-12-03T18:20:25.781Z,11.98
2022-12-03T18:22:53.460Z,12.10
2022-12-03T18:25:22.437Z,13.65
2022-12-03T18:27:50.076Z,11.88
2022-12-03T18:30:17.951Z,13.50
2022-12-03T18:32:46.017Z,12.48
2022-12-03T18:35:13.710Z,13.55
2022-12-03T18:37:41.332Z,12.05
2022-12-03T18:40:13.537Z,12.23
2022-12-03T18:42:42.590Z,11.32
2022-12-03T18:45:12.939Z,13.20
2022-12-03T18:47:40.622Z,12.07
2022-12-03T18:50:09.489Z,13.18
2022-12-03T18:52:38.799Z,13.15
2022-12-03T18:55:07.251Z,12.20
2022-12-03T18:57:34.902Z,12.98
2022-12-03T19:00:11.810Z,12.90
2022-12-03T19:05:28.601Z,15.93
2022-12-03T19:07:56.664Z,14.23
2022-12-03T19:10:24.673Z,14.50
2022-12-03T19:12:52.482Z,11.77
2022-12-03T19:15:21.932Z,15.00
2022-12-03T19:17:49.657Z,13.55
2022-12-03T19:20:17.349Z,12.55
2022-12-03T19:22:44.989Z,13.15
2022-12-03T19:25:13.031Z,12.98
2022-12-03T19:27:40.668Z,13.30
2022-12-03T19:30:08.953Z,13.13
2022-12-03T19:32:38.053Z,12.95
2022-12-03T19:35:07.579Z,12.13
2022-12-03T19:37:35.275Z,12.70
2022-12-03T19:40:03.080Z,12.38
2022-12-03T19:42:31.218Z,14.13
2022-12-03T19:44:58.865Z,14.48
2022-12-03T19:47:28.228Z,12.48
2022-12-03T19:49:57.521Z,14.25
2022-12-03T19:52:25.444Z,13.10
2022-12-03T19:54:53.584Z,13.57
2022-12-03T19:57:23.438Z,13.68
2022-12-03T19:59:51.601Z,12.85
2022-12-03T20:02:19.572Z,12.95
2022-12-03T20:04:47.276Z,13.32
2022-12-03T20:07:18.316Z,11.05
2022-12-03T20:09:45.981Z,13.43
2022-12-03T20:12:13.725Z,15.25
2022-12-03T20:14:41.376Z,14.15
2022-12-03T20:17:09.386Z,12.50
2022-12-03T20:19:37.076Z,12.55
2022-12-03T20:22:04.697Z,12.95
2022-12-03T20:24:33.684Z,14.93
2022-12-03T20:27:01.291Z,12.90
2022-12-03T20:29:28.911Z,14.55
2022-12-03T20:31:56.637Z,14.88
2022-12-03T20:34:24.259Z,13.32
2022-12-03T20:36:51.860Z,13.32
2022-12-03T20:39:19.446Z,14.73
2022-12-03T20:41:48.503Z,14.93
2022-12-03T20:44:16.151Z,11.00
2022-12-03T20:46:43.915Z,13.95
2022-12-03T20:49:11.561Z,13.45
2022-12-03T20:51:39.196Z,14.40
2022-12-03T20:54:06.992Z,14.57
2022-12-03T20:56:35.694Z,14.07
2022-12-03T20:59:06.540Z,12.70
2022-12-03T21:01:34.421Z,14.85
2022-12-03T21:04:03.076Z,14.00
2022-12-03T21:06:30.938Z,15.02
2022-12-03T21:08:59.032Z,14.25
2022-12-03T21:11:29.516Z,17.38
2022-12-03T21:13:57.642Z,14.73
2022-12-03T21:16:51.945Z,13.38
2022-12-03T21:19:17.046Z,14.63
2022-12-03T21:21:44.622Z,15.07
2022-12-03T21:24:13.439Z,15.40
2022-12-03T21:26:41.385Z,13.82
2022-12-03T21:29:09.145Z,12.70
2022-12-03T21:31:39.870Z,13.23
2022-12-03T21:34:08.698Z,15.02
2022-12-03T21:36:36.432Z,13.73
2022-12-03T21:39:04.623Z,14.05
2022-12-03T21:41:32.328Z,12.75
2022-12-03T21:43:59.990Z,12.90
2022-12-03T21:47:12.529Z,13.52
2022-12-03T21:49:19.330Z,11.80
2022-12-03T21:51:47.104Z,13.73
2022-12-03T21:54:14.778Z,13.18
2022-12-03T21:56:42.594Z,14.18
2022-12-03T21:59:10.270Z,13.73
2022-12-03T22:01:39.678Z,12.20
2022-12-03T22:04:10.476Z,13.30
2022-12-03T22:06:39.485Z,14.55
2022-12-03T22:09:07.235Z,13.57
2022-12-03T22:11:34.971Z,12.63
2022-12-03T22:14:04.769Z,13.85
2022-12-03T22:16:32.620Z,13.60
2022-12-03T22:19:00.309Z,12.38
2022-12-03T22:21:27.929Z,14.75
2022-12-03T22:23:57.837Z,13.35
2022-12-03T22:26:25.533Z,11.77
2022-12-03T22:28:53.163Z,14.65
2022-12-03T22:31:21.107Z,12.80
2022-12-03T22:33:49.722Z,13.75
2022-12-03T22:36:21.638Z,14.32
2022-12-03T22:38:49.919Z,11.88
2022-12-03T22:41:19.116Z,12.55
2022-12-03T22:43:47.018Z,12.18
2022-12-03T22:46:15.103Z,13.93
2022-12-03T22:48:43.596Z,14.77
2022-12-03T22:51:12.911Z,15.07
2022-12-03T22:53:40.760Z,14.40
2022-12-03T22:56:08.483Z,13.45
2022-12-03T22:58:38.323Z,11.68
2022-12-03T23:01:07.219Z,12.90
2022-12-03T23:03:34.919Z,12.90
2022-12-03T23:06:02.648Z,14.90
2022-12-03T23:08:30.276Z,13.55
2022-12-03T23:11:01.244Z,14.02
2022-12-03T23:13:28.848Z,13.43
2022-12-03T23:15:58.371Z,15.05
2022-12-03T23:18:26.083Z,12.43
2022-12-03T23:20:54.602Z,13.98
2022-12-03T23:23:23.352Z,13.52
2022-12-03T23:25:57.126Z,12.70
2022-12-03T23:28:25.026Z,12.93
2022-12-03T23:30:52.840Z,14.73
2022-12-03T23:33:22.414Z,13.82
2022-12-03T23:35:50.031Z,15.30
2022-12-03T23:38:17.629Z,12.52
2022-12-03T23:40:48.302Z,12.07
2022-12-03T23:43:16.443Z,12.68
2022-12-03T23:45:44.107Z,12.07
2022-12-03T23:48:11.790Z,12.57
2022-12-03T23:50:41.435Z,12.98
2022-12-03T23:53:09.228Z,13.48
2022-12-03T23:55:39.555Z,12.90
2022-12-03T23:58:07.189Z,12.90
